LIMF/TRN METAR and TAF weather

Enter ICAO airport designator
Station Type Date Time Source
LIMF METAR 2020/04/04 04:50 UTC NOAA

LIMF 040450Z AUTO 31004KT 9999 NCD 05/M00 Q1019


Station Type Date Time Source
LIMF Decoded METAR 2020/04/04 04:50 UTC NOAA

Torino / Caselle, Italy (LIMF) 45-13N 007-39E 287M
Apr 04, 2020 - 12:50 AM EDT / 2020.04.04 0450 UTC
Wind: from the NW (310 degrees) at 5 MPH (4 KT):0
Visibility: greater than 7 mile(s):0
Temperature: 41 F (5 C)
Dew Point: 32 F (0 C)
Relative Humidity: 70%
Pressure (altimeter): 30.09 in. Hg (1019 hPa)
ob: LIMF 040450Z AUTO 31004KT 9999 NCD 05/M00 Q1019
cycle: 5

Station Type Date Time Source
LIMF TAF 2020/04/04 00:57 UTC NOAA

TAF COR LIMF 040355Z 0400/0424 VRB05KT 8000 NSC
TEMPO 0400/0406 4000 BR

Example: see airport list